sensor_id;sensor_type;location;lat;lon;timestamp;pressure;altitude;pressure_sealevel;temperature;humidity
35989;BME280;22064;42.672;23.282;2022-07-17T00:00:37;95050.78;;;20.81;100.00
35989;BME280;22064;42.672;23.282;2022-07-17T00:03:11;95056.06;;;20.81;100.00
35989;BME280;22064;42.672;23.282;2022-07-17T00:05:37;95061.69;;;20.79;100.00
35989;BME280;22064;42.672;23.282;2022-07-17T00:08:04;95038.56;;;20.57;100.00
35989;BME280;22064;42.672;23.282;2022-07-17T00:10:32;95068.66;;;20.75;100.00
35989;BME280;22064;42.672;23.282;2022-07-17T00:12:57;95064.53;;;20.69;100.00
35989;BME280;22064;42.672;23.282;2022-07-17T00:15:23;95051.19;;;20.60;100.00
35989;BME280;22064;42.672;23.282;2022-07-17T00:17:48;95068.16;;;20.59;100.00
35989;BME280;22064;42.672;23.282;2022-07-17T00:20:14;95068.63;;;20.61;100.00
35989;BME280;22064;42.672;23.282;2022-07-17T00:22:39;95073.47;;;20.59;100.00
35989;BME280;22064;42.672;23.282;2022-07-17T00:25:08;95058.94;;;20.57;100.00
35989;BME280;22064;42.672;23.282;2022-07-17T00:27:33;95073.66;;;20.63;100.00
35989;BME280;22064;42.672;23.282;2022-07-17T00:29:59;95060.22;;;20.59;100.00
35989;BME280;22064;42.672;23.282;2022-07-17T00:32:26;95053.75;;;20.51;100.00
35989;BME280;22064;42.672;23.282;2022-07-17T00:34:52;95056.38;;;20.51;100.00
35989;BME280;22064;42.672;23.282;2022-07-17T00:37:17;95060.88;;;20.65;100.00
35989;BME280;22064;42.672;23.282;2022-07-17T00:39:43;95068.44;;;20.58;100.00
35989;BME280;22064;42.672;23.282;2022-07-17T00:42:13;95071.69;;;20.55;100.00
35989;BME280;22064;42.672;23.282;2022-07-17T00:44:40;95062.88;;;20.59;100.00
35989;BME280;22064;42.672;23.282;2022-07-17T00:47:17;95079.53;;;20.60;100.00
35989;BME280;22064;42.672;23.282;2022-07-17T00:49:44;95069.91;;;20.64;100.00
35989;BME280;22064;42.672;23.282;2022-07-17T00:52:11;95074.72;;;20.62;100.00
35989;BME280;22064;42.672;23.282;2022-07-17T00:54:38;95082.75;;;20.57;100.00
35989;BME280;22064;42.672;23.282;2022-07-17T00:57:07;95087.31;;;20.51;100.00
35989;BME280;22064;42.672;23.282;2022-07-17T00:59:33;95072.91;;;20.43;100.00
35989;BME280;22064;42.672;23.282;2022-07-17T01:02:10;95082.72;;;20.43;100.00
35989;BME280;22064;42.672;23.282;2022-07-17T01:04:37;95089.09;;;20.42;100.00
35989;BME280;22064;42.672;23.282;2022-07-17T01:07:04;95084.19;;;20.35;100.00
35989;BME280;22064;42.672;23.282;2022-07-17T01:09:32;95097.78;;;20.28;100.00
35989;BME280;22064;42.672;23.282;2022-07-17T01:11:58;95099.66;;;20.28;100.00
35989;BME280;22064;42.672;23.282;2022-07-17T01:14:25;95091.03;;;20.22;100.00
35989;BME280;22064;42.672;23.282;2022-07-17T01:16:52;95092.38;;;20.20;100.00
35989;BME280;22064;42.672;23.282;2022-07-17T01:19:18;95096.69;;;20.16;100.00
35989;BME280;22064;42.672;23.282;2022-07-17T01:21:47;95091.88;;;20.18;100.00
35989;BME280;22064;42.672;23.282;2022-07-17T01:24:14;95086.00;;;20.21;100.00
35989;BME280;22064;42.672;23.282;2022-07-17T01:26:44;95077.59;;;20.19;100.00
35989;BME280;22064;42.672;23.282;2022-07-17T01:29:12;95080.06;;;20.29;100.00
35989;BME280;22064;42.672;23.282;2022-07-17T01:31:39;95082.69;;;20.29;100.00
35989;BME280;22064;42.672;23.282;2022-07-17T01:34:12;95088.47;;;20.31;100.00
35989;BME280;22064;42.672;23.282;2022-07-17T01:36:38;95081.22;;;20.23;100.00
35989;BME280;22064;42.672;23.282;2022-07-17T01:39:04;95093.75;;;20.31;100.00
35989;BME280;22064;42.672;23.282;2022-07-17T01:41:30;95084.06;;;20.13;100.00
35989;BME280;22064;42.672;23.282;2022-07-17T01:43:56;95085.69;;;20.08;100.00
35989;BME280;22064;42.672;23.282;2022-07-17T01:46:21;95081.19;;;20.09;100.00
35989;BME280;22064;42.672;23.282;2022-07-17T01:48:47;95058.94;;;19.96;100.00
35989;BME280;22064;42.672;23.282;2022-07-17T01:51:13;95078.47;;;20.14;100.00
35989;BME280;22064;42.672;23.282;2022-07-17T01:53:38;95082.78;;;20.10;100.00
35989;BME280;22064;42.672;23.282;2022-07-17T01:56:04;95069.03;;;19.94;100.00
35989;BME280;22064;42.672;23.282;2022-07-17T01:58:30;95088.22;;;20.00;100.00
35989;BME280;22064;42.672;23.282;2022-07-17T02:00:56;95094.38;;;19.95;100.00
35989;BME280;22064;42.672;23.282;2022-07-17T02:03:21;95092.03;;;19.94;100.00
35989;BME280;22064;42.672;23.282;2022-07-17T02:05:47;95099.25;;;19.88;100.00
35989;BME280;22064;42.672;23.282;2022-07-17T02:08:13;95091.41;;;19.83;100.00
35989;BME280;22064;42.672;23.282;2022-07-17T02:10:38;95093.47;;;19.86;100.00
35989;BME280;22064;42.672;23.282;2022-07-17T02:13:04;95101.41;;;19.86;100.00
35989;BME280;22064;42.672;23.282;2022-07-17T02:15:29;95085.94;;;19.93;100.00
35989;BME280;22064;42.672;23.282;2022-07-17T02:17:56;95094.88;;;19.97;100.00
35989;BME280;22064;42.672;23.282;2022-07-17T02:20:22;95096.72;;;19.97;100.00
35989;BME280;22064;42.672;23.282;2022-07-17T02:22:47;95091.59;;;19.87;100.00
35989;BME280;22064;42.672;23.282;2022-07-17T02:25:14;95103.06;;;19.82;100.00
35989;BME280;22064;42.672;23.282;2022-07-17T02:27:40;95087.78;;;19.79;100.00
35989;BME280;22064;42.672;23.282;2022-07-17T02:30:17;95087.34;;;19.72;100.00
35989;BME280;22064;42.672;23.282;2022-07-17T02:32:43;95097.69;;;19.68;100.00
35989;BME280;22064;42.672;23.282;2022-07-17T02:35:11;95090.28;;;19.51;100.00
35989;BME280;22064;42.672;23.282;2022-07-17T02:37:38;95084.22;;;19.51;100.00
35989;BME280;22064;42.672;23.282;2022-07-17T02:40:04;95086.84;;;19.51;100.00
35989;BME280;22064;42.672;23.282;2022-07-17T02:42:30;95102.03;;;19.40;100.00
35989;BME280;22064;42.672;23.282;2022-07-17T02:44:58;95107.91;;;19.37;100.00
35989;BME280;22064;42.672;23.282;2022-07-17T02:47:28;95100.47;;;19.39;100.00
35989;BME280;22064;42.672;23.282;2022-07-17T02:49:54;95098.94;;;19.38;100.00
35989;BME280;22064;42.672;23.282;2022-07-17T02:52:20;95109.53;;;19.33;100.00
35989;BME280;22064;42.672;23.282;2022-07-17T02:54:46;95099.19;;;19.18;100.00
35989;BME280;22064;42.672;23.282;2022-07-17T02:57:12;95094.41;;;19.20;100.00
35989;BME280;22064;42.672;23.282;2022-07-17T02:59:38;95110.63;;;19.13;100.00
35989;BME280;22064;42.672;23.282;2022-07-17T03:02:03;95097.41;;;19.13;100.00
35989;BME280;22064;42.672;23.282;2022-07-17T03:04:29;95105.03;;;19.14;100.00
35989;BME280;22064;42.672;23.282;2022-07-17T03:06:55;95110.09;;;19.11;100.00
35989;BME280;22064;42.672;23.282;2022-07-17T03:09:20;95115.44;;;19.25;100.00
35989;BME280;22064;42.672;23.282;2022-07-17T03:11:46;95115.09;;;19.31;100.00
35989;BME280;22064;42.672;23.282;2022-07-17T03:14:11;95115.53;;;19.20;100.00
35989;BME280;22064;42.672;23.282;2022-07-17T03:16:37;95110.63;;;19.13;100.00
35989;BME280;22064;42.672;23.282;2022-07-17T03:19:03;95124.44;;;19.24;100.00
35989;BME280;22064;42.672;23.282;2022-07-17T03:21:28;95134.81;;;19.39;100.00
35989;BME280;22064;42.672;23.282;2022-07-17T03:23:54;95133.16;;;19.43;100.00
35989;BME280;22064;42.672;23.282;2022-07-17T03:26:19;95133.25;;;19.57;100.00
35989;BME280;22064;42.672;23.282;2022-07-17T03:28:45;95131.19;;;19.54;100.00
35989;BME280;22064;42.672;23.282;2022-07-17T03:31:10;95130.47;;;19.48;100.00
35989;BME280;22064;42.672;23.282;2022-07-17T03:33:36;95138.78;;;19.18;100.00
35989;BME280;22064;42.672;23.282;2022-07-17T03:36:01;95139.97;;;19.06;100.00
35989;BME280;22064;42.672;23.282;2022-07-17T03:38:27;95144.69;;;19.09;100.00
35989;BME280;22064;42.672;23.282;2022-07-17T03:40:53;95132.47;;;18.95;100.00
35989;BME280;22064;42.672;23.282;2022-07-17T03:43:18;95146.38;;;19.00;100.00
35989;BME280;22064;42.672;23.282;2022-07-17T03:45:44;95149.47;;;19.07;100.00
35989;BME280;22064;42.672;23.282;2022-07-17T03:48:09;95151.16;;;19.22;100.00
35989;BME280;22064;42.672;23.282;2022-07-17T03:50:35;95152.91;;;19.70;100.00
35989;BME280;22064;42.672;23.282;2022-07-17T03:53:00;95153.97;;;19.88;100.00
35989;BME280;22064;42.672;23.282;2022-07-17T03:55:26;95157.47;;;19.83;100.00
35989;BME280;22064;42.672;23.282;2022-07-17T03:57:51;95162.94;;;19.87;100.00
35989;BME280;22064;42.672;23.282;2022-07-17T04:00:17;95167.72;;;20.03;100.00
35989;BME280;22064;42.672;23.282;2022-07-17T04:02:43;95179.25;;;19.94;100.00
35989;BME280;22064;42.672;23.282;2022-07-17T04:05:10;95174.03;;;19.70;100.00
35989;BME280;22064;42.672;23.282;2022-07-17T04:07:40;95171.78;;;19.58;100.00
35989;BME280;22064;42.672;23.282;2022-07-17T04:10:08;95170.22;;;19.57;100.00
35989;BME280;22064;42.672;23.282;2022-07-17T04:12:34;95173.94;;;19.75;100.00
35989;BME280;22064;42.672;23.282;2022-07-17T04:15:00;95172.81;;;19.81;100.00
35989;BME280;22064;42.672;23.282;2022-07-17T04:17:26;95182.09;;;19.97;100.00
35989;BME280;22064;42.672;23.282;2022-07-17T04:19:52;95175.94;;;20.02;100.00
35989;BME280;22064;42.672;23.282;2022-07-17T04:22:17;95186.22;;;20.22;100.00
35989;BME280;22064;42.672;23.282;2022-07-17T04:24:43;95196.72;;;20.60;100.00
35989;BME280;22064;42.672;23.282;2022-07-17T04:27:09;95198.19;;;20.80;100.00
35989;BME280;22064;42.672;23.282;2022-07-17T04:29:35;95184.41;;;21.11;100.00
35989;BME280;22064;42.672;23.282;2022-07-17T04:32:00;95180.81;;;21.71;100.00
35989;BME280;22064;42.672;23.282;2022-07-17T04:34:26;95198.66;;;22.38;100.00
35989;BME280;22064;42.672;23.282;2022-07-17T04:36:52;95194.94;;;22.70;100.00
35989;BME280;22064;42.672;23.282;2022-07-17T04:39:17;95196.25;;;23.12;97.07
35989;BME280;22064;42.672;23.282;2022-07-17T04:41:43;95198.16;;;23.29;92.37
35989;BME280;22064;42.672;23.282;2022-07-17T04:44:09;95196.19;;;23.43;91.41
35989;BME280;22064;42.672;23.282;2022-07-17T04:46:34;95201.00;;;23.41;88.19
35989;BME280;22064;42.672;23.282;2022-07-17T04:49:00;95211.53;;;23.55;85.51
35989;BME280;22064;42.672;23.282;2022-07-17T04:51:25;95201.59;;;23.87;85.62
35989;BME280;22064;42.672;23.282;2022-07-17T04:53:51;95198.75;;;24.18;82.25
35989;BME280;22064;42.672;23.282;2022-07-17T04:56:16;95198.91;;;24.22;78.29
35989;BME280;22064;42.672;23.282;2022-07-17T04:58:42;95215.47;;;24.36;77.54
35989;BME280;22064;42.672;23.282;2022-07-17T05:01:07;95221.28;;;24.55;77.89
35989;BME280;22064;42.672;23.282;2022-07-17T05:03:33;95213.47;;;24.50;73.44
35989;BME280;22064;42.672;23.282;2022-07-17T05:05:59;95218.56;;;24.73;74.63
35989;BME280;22064;42.672;23.282;2022-07-17T05:08:24;95232.09;;;24.15;77.64
35989;BME280;22064;42.672;23.282;2022-07-17T05:10:50;95227.84;;;24.23;74.88
35989;BME280;22064;42.672;23.282;2022-07-17T05:13:15;95215.03;;;23.82;67.00
35989;BME280;22064;42.672;23.282;2022-07-17T05:15:41;95221.59;;;23.84;68.59
35989;BME280;22064;42.672;23.282;2022-07-17T05:18:07;95225.97;;;23.80;70.53
35989;BME280;22064;42.672;23.282;2022-07-17T05:20:33;95219.09;;;23.88;69.88
35989;BME280;22064;42.672;23.282;2022-07-17T05:22:59;95220.81;;;23.75;66.44
35989;BME280;22064;42.672;23.282;2022-07-17T05:25:24;95219.16;;;23.48;59.85
35989;BME280;22064;42.672;23.282;2022-07-17T05:27:51;95229.31;;;23.55;58.17
35989;BME280;22064;42.672;23.282;2022-07-17T05:30:16;95228.16;;;23.95;57.00
35989;BME280;22064;42.672;23.282;2022-07-17T05:32:42;95217.00;;;23.67;55.63
35989;BME280;22064;42.672;23.282;2022-07-17T05:35:07;95233.63;;;23.82;55.46
35989;BME280;22064;42.672;23.282;2022-07-17T05:37:33;95228.63;;;23.71;54.20
35989;BME280;22064;42.672;23.282;2022-07-17T05:39:58;95232.06;;;23.89;53.96
35989;BME280;22064;42.672;23.282;2022-07-17T05:42:24;95236.63;;;24.15;52.87
35989;BME280;22064;42.672;23.282;2022-07-17T05:44:50;95235.06;;;24.05;51.49
35989;BME280;22064;42.672;23.282;2022-07-17T05:47:16;95232.69;;;23.95;51.26
35989;BME280;22064;42.672;23.282;2022-07-17T05:49:41;95230.38;;;24.02;52.28
35989;BME280;22064;42.672;23.282;2022-07-17T05:52:07;95227.38;;;23.95;51.49
35989;BME280;22064;42.672;23.282;2022-07-17T05:54:32;95240.38;;;24.31;52.00
35989;BME280;22064;42.672;23.282;2022-07-17T05:56:59;95235.81;;;24.66;50.61
35989;BME280;22064;42.672;23.282;2022-07-17T05:59:24;95224.25;;;24.62;49.90
35989;BME280;22064;42.672;23.282;2022-07-17T06:01:50;95239.13;;;24.20;50.28
35989;BME280;22064;42.672;23.282;2022-07-17T06:04:15;95226.59;;;23.94;51.00
35989;BME280;22064;42.672;23.282;2022-07-17T06:06:41;95237.56;;;23.84;51.48
35989;BME280;22064;42.672;23.282;2022-07-17T06:09:09;95241.78;;;23.85;51.74
35989;BME280;22064;42.672;23.282;2022-07-17T06:11:35;95243.00;;;23.79;52.41
35989;BME280;22064;42.672;23.282;2022-07-17T06:14:00;95238.19;;;24.07;54.17
35989;BME280;22064;42.672;23.282;2022-07-17T06:16:26;95234.28;;;24.31;52.72
35989;BME280;22064;42.672;23.282;2022-07-17T06:18:52;95242.25;;;24.39;50.79
35989;BME280;22064;42.672;23.282;2022-07-17T06:21:17;95235.53;;;24.51;48.71
35989;BME280;22064;42.672;23.282;2022-07-17T06:23:43;95241.03;;;24.46;49.44
35989;BME280;22064;42.672;23.282;2022-07-17T06:26:09;95244.00;;;24.44;50.23
35989;BME280;22064;42.672;23.282;2022-07-17T06:28:34;95251.31;;;24.38;50.82
35989;BME280;22064;42.672;23.282;2022-07-17T06:31:00;95251.50;;;24.25;52.37
35989;BME280;22064;42.672;23.282;2022-07-17T06:33:26;95248.06;;;24.50;53.06
35989;BME280;22064;42.672;23.282;2022-07-17T06:35:52;95252.69;;;24.79;51.26
35989;BME280;22064;42.672;23.282;2022-07-17T06:38:17;95250.25;;;24.65;50.48
35989;BME280;22064;42.672;23.282;2022-07-17T06:40:43;95248.81;;;24.68;50.51
35989;BME280;22064;42.672;23.282;2022-07-17T06:43:09;95245.84;;;24.70;50.52
35989;BME280;22064;42.672;23.282;2022-07-17T06:45:34;95245.41;;;24.50;50.87
35989;BME280;22064;42.672;23.282;2022-07-17T06:48:01;95240.69;;;24.56;50.22
35989;BME280;22064;42.672;23.282;2022-07-17T06:50:27;95243.50;;;24.59;50.80
35989;BME280;22064;42.672;23.282;2022-07-17T06:52:52;95251.03;;;24.57;51.31
35989;BME280;22064;42.672;23.282;2022-07-17T06:55:18;95254.00;;;24.56;50.46
35989;BME280;22064;42.672;23.282;2022-07-17T06:57:43;95249.75;;;24.63;50.61
35989;BME280;22064;42.672;23.282;2022-07-17T07:00:09;95256.28;;;24.92;49.86
35989;BME280;22064;42.672;23.282;2022-07-17T07:02:35;95250.53;;;24.73;50.80
35989;BME280;22064;42.672;23.282;2022-07-17T07:05:01;95255.88;;;24.64;50.64
35989;BME280;22064;42.672;23.282;2022-07-17T07:07:27;95260.38;;;24.89;50.58
35989;BME280;22064;42.672;23.282;2022-07-17T07:09:52;95259.69;;;25.19;51.31
35989;BME280;22064;42.672;23.282;2022-07-17T07:12:18;95259.53;;;25.06;49.78
35989;BME280;22064;42.672;23.282;2022-07-17T07:14:43;95251.13;;;24.96;48.93
35989;BME280;22064;42.672;23.282;2022-07-17T07:17:09;95261.69;;;25.22;49.81
35989;BME280;22064;42.672;23.282;2022-07-17T07:19:35;95261.69;;;25.22;49.35
35989;BME280;22064;42.672;23.282;2022-07-17T07:22:00;95240.41;;;25.04;48.76
35989;BME280;22064;42.672;23.282;2022-07-17T07:24:26;95254.31;;;25.27;47.66
35989;BME280;22064;42.672;23.282;2022-07-17T07:26:51;95260.25;;;25.33;48.66
35989;BME280;22064;42.672;23.282;2022-07-17T07:29:17;95270.53;;;25.05;47.92
35989;BME280;22064;42.672;23.282;2022-07-17T07:31:43;95270.13;;;25.32;48.89
35989;BME280;22064;42.672;23.282;2022-07-17T07:34:08;95273.63;;;25.54;46.91
35989;BME280;22064;42.672;23.282;2022-07-17T07:36:34;95267.13;;;25.64;47.48
35989;BME280;22064;42.672;23.282;2022-07-17T07:38:59;95262.22;;;25.83;46.53
35989;BME280;22064;42.672;23.282;2022-07-17T07:41:25;95268.69;;;26.24;45.67
35989;BME280;22064;42.672;23.282;2022-07-17T07:43:50;95261.75;;;26.44;45.34
35989;BME280;22064;42.672;23.282;2022-07-17T07:46:16;95267.63;;;26.37;44.92
35989;BME280;22064;42.672;23.282;2022-07-17T07:48:42;95265.66;;;26.46;44.96
35989;BME280;22064;42.672;23.282;2022-07-17T07:51:07;95262.81;;;26.31;45.41
35989;BME280;22064;42.672;23.282;2022-07-17T07:53:33;95256.34;;;26.32;44.96
35989;BME280;22064;42.672;23.282;2022-07-17T07:55:58;95263.88;;;26.17;45.42
35989;BME280;22064;42.672;23.282;2022-07-17T07:58:24;95266.72;;;26.33;44.38
35989;BME280;22064;42.672;23.282;2022-07-17T08:00:50;95265.94;;;26.33;43.85
35989;BME280;22064;42.672;23.282;2022-07-17T08:03:15;95266.53;;;26.17;43.16
35989;BME280;22064;42.672;23.282;2022-07-17T08:05:42;95260.03;;;26.27;43.48
35989;BME280;22064;42.672;23.282;2022-07-17T08:08:08;95270.19;;;26.55;43.84
35989;BME280;22064;42.672;23.282;2022-07-17T08:10:34;95257.13;;;26.32;42.66
35989;BME280;22064;42.672;23.282;2022-07-17T08:13:00;95274.44;;;26.47;44.06
35989;BME280;22064;42.672;23.282;2022-07-17T08:15:26;95260.72;;;25.26;44.71
35989;BME280;22064;42.672;23.282;2022-07-17T08:17:52;95276.81;;;25.39;46.29
35989;BME280;22064;42.672;23.282;2022-07-17T08:20:20;95267.41;;;24.85;46.59
35989;BME280;22064;42.672;23.282;2022-07-17T08:22:46;95269.63;;;24.83;47.83
35989;BME280;22064;42.672;23.282;2022-07-17T08:25:12;95266.41;;;25.07;46.95
35989;BME280;22064;42.672;23.282;2022-07-17T08:27:40;95268.09;;;24.74;47.68
35989;BME280;22064;42.672;23.282;2022-07-17T08:30:07;95269.31;;;24.85;48.05
35989;BME280;22064;42.672;23.282;2022-07-17T08:32:33;95265.97;;;25.05;48.11
35989;BME280;22064;42.672;23.282;2022-07-17T08:35:00;95280.09;;;25.44;46.69
35989;BME280;22064;42.672;23.282;2022-07-17T08:37:26;95281.59;;;25.33;45.75
35989;BME280;22064;42.672;23.282;2022-07-17T08:39:52;95280.06;;;25.15;46.29
35989;BME280;22064;42.672;23.282;2022-07-17T08:42:17;95266.88;;;25.09;46.26
35989;BME280;22064;42.672;23.282;2022-07-17T08:44:44;95272.72;;;25.50;45.42
35989;BME280;22064;42.672;23.282;2022-07-17T08:47:11;95276.41;;;25.96;44.82
35989;BME280;22064;42.672;23.282;2022-07-17T08:49:41;95270.41;;;26.20;43.75
35989;BME280;22064;42.672;23.282;2022-07-17T08:52:09;95263.53;;;26.19;43.82
35989;BME280;22064;42.672;23.282;2022-07-17T08:54:35;95268.47;;;26.29;43.68
35989;BME280;22064;42.672;23.282;2022-07-17T08:57:02;95258.50;;;26.59;43.08
35989;BME280;22064;42.672;23.282;2022-07-17T08:59:28;95264.34;;;26.74;42.33
35989;BME280;22064;42.672;23.282;2022-07-17T09:01:53;95251.81;;;26.86;41.36
35989;BME280;22064;42.672;23.282;2022-07-17T09:04:19;95253.59;;;26.94;41.30
35989;BME280;22064;42.672;23.282;2022-07-17T09:06:44;95243.19;;;26.68;40.83
35989;BME280;22064;42.672;23.282;2022-07-17T09:09:12;95248.00;;;26.87;41.62
35989;BME280;22064;42.672;23.282;2022-07-17T09:11:51;95261.63;;;27.07;42.16
35989;BME280;22064;42.672;23.282;2022-07-17T09:14:19;95259.00;;;27.19;41.08
35989;BME280;22064;42.672;23.282;2022-07-17T09:19:27;95253.56;;;25.86;42.71
35989;BME280;22064;42.672;23.282;2022-07-17T09:24:42;95254.22;;;26.04;43.27
35989;BME280;22064;42.672;23.282;2022-07-17T09:27:08;95265.84;;;25.70;45.23
35989;BME280;22064;42.672;23.282;2022-07-17T09:29:34;95254.81;;;26.10;44.01
35989;BME280;22064;42.672;23.282;2022-07-17T09:32:00;95240.41;;;26.23;42.82
35989;BME280;22064;42.672;23.282;2022-07-17T09:34:26;95246.09;;;26.21;42.94
35989;BME280;22064;42.672;23.282;2022-07-17T09:37:02;95240.97;;;25.95;43.48
35989;BME280;22064;42.672;23.282;2022-07-17T09:39:38;95254.59;;;25.94;44.44
35989;BME280;22064;42.672;23.282;2022-07-17T09:42:04;95256.69;;;26.30;44.30
35989;BME280;22064;42.672;23.282;2022-07-17T09:44:29;95249.09;;;26.74;43.86
35989;BME280;22064;42.672;23.282;2022-07-17T09:46:56;95247.72;;;27.01;43.77
35989;BME280;22064;42.672;23.282;2022-07-17T09:49:25;95255.22;;;27.20;41.92
35989;BME280;22064;42.672;23.282;2022-07-17T09:51:52;95250.72;;;27.00;42.84
35989;BME280;22064;42.672;23.282;2022-07-17T09:54:21;95240.38;;;26.65;43.86
35989;BME280;22064;42.672;23.282;2022-07-17T09:56:51;95240.28;;;26.61;42.92
35989;BME280;22064;42.672;23.282;2022-07-17T09:59:22;95254.44;;;27.20;42.93
35989;BME280;22064;42.672;23.282;2022-07-17T10:01:49;95248.84;;;27.12;40.94
35989;BME280;22064;42.672;23.282;2022-07-17T10:04:18;95251.22;;;27.14;40.22
35989;BME280;22064;42.672;23.282;2022-07-17T10:06:43;95242.97;;;27.68;38.36
35989;BME280;22064;42.672;23.282;2022-07-17T10:09:10;95245.09;;;27.87;37.77
35989;BME280;22064;42.672;23.282;2022-07-17T10:11:38;95247.31;;;28.25;37.55
35989;BME280;22064;42.672;23.282;2022-07-17T10:14:07;95240.69;;;28.47;36.67
35989;BME280;22064;42.672;23.282;2022-07-17T10:16:34;95236.19;;;28.80;36.53
35989;BME280;22064;42.672;23.282;2022-07-17T10:19:02;95238.25;;;28.70;36.52
35989;BME280;22064;42.672;23.282;2022-07-17T10:21:29;95228.34;;;28.87;36.45
35989;BME280;22064;42.672;23.282;2022-07-17T10:26:34;95237.00;;;29.43;35.29
35989;BME280;22064;42.672;23.282;2022-07-17T10:28:59;95239.19;;;29.38;34.33
35989;BME280;22064;42.672;23.282;2022-07-17T10:31:27;95229.16;;;29.35;34.63
35989;BME280;22064;42.672;23.282;2022-07-17T10:34:03;95235.22;;;29.32;35.58
35989;BME280;22064;42.672;23.282;2022-07-17T10:36:34;95226.53;;;29.54;34.84
35989;BME280;22064;42.672;23.282;2022-07-17T10:39:16;95220.28;;;29.50;34.75
35989;BME280;22064;42.672;23.282;2022-07-17T10:41:43;95221.34;;;28.98;35.45
35989;BME280;22064;42.672;23.282;2022-07-17T10:44:28;95215.91;;;28.94;34.73
35989;BME280;22064;42.672;23.282;2022-07-17T10:46:55;95209.06;;;28.97;35.12
35989;BME280;22064;42.672;23.282;2022-07-17T10:49:22;95207.19;;;29.13;34.70
35989;BME280;22064;42.672;23.282;2022-07-17T10:51:48;95211.00;;;29.44;35.58
35989;BME280;22064;42.672;23.282;2022-07-17T10:54:15;95230.56;;;28.00;36.26
35989;BME280;22064;42.672;23.282;2022-07-17T10:56:41;95221.78;;;27.51;36.60
35989;BME280;22064;42.672;23.282;2022-07-17T10:59:07;95208.56;;;27.17;38.23
35989;BME280;22064;42.672;23.282;2022-07-17T11:01:32;95217.81;;;27.32;37.95
35989;BME280;22064;42.672;23.282;2022-07-17T11:04:00;95230.72;;;27.55;37.32
35989;BME280;22064;42.672;23.282;2022-07-17T11:06:34;95231.97;;;27.57;38.07
35989;BME280;22064;42.672;23.282;2022-07-17T11:11:46;95207.16;;;28.25;36.26
35989;BME280;22064;42.672;23.282;2022-07-17T11:17:03;95199.88;;;29.61;35.36
35989;BME280;22064;42.672;23.282;2022-07-17T11:19:34;95200.81;;;30.24;33.38
35989;BME280;22064;42.672;23.282;2022-07-17T11:22:06;95204.75;;;29.91;33.34
35989;BME280;22064;42.672;23.282;2022-07-17T11:24:45;95193.47;;;29.50;33.99
35989;BME280;22064;42.672;23.282;2022-07-17T11:27:12;95197.75;;;30.06;34.16
35989;BME280;22064;42.672;23.282;2022-07-17T11:29:39;95190.22;;;30.73;33.46
35989;BME280;22064;42.672;23.282;2022-07-17T11:32:06;95194.63;;;30.20;34.26
35989;BME280;22064;42.672;23.282;2022-07-17T11:34:32;95189.16;;;29.45;35.31
35989;BME280;22064;42.672;23.282;2022-07-17T11:37:02;95188.03;;;28.67;36.07
35989;BME280;22064;42.672;23.282;2022-07-17T11:39:45;95196.63;;;28.89;35.99
35989;BME280;22064;42.672;23.282;2022-07-17T11:42:14;95175.03;;;28.53;35.60
35989;BME280;22064;42.672;23.282;2022-07-17T11:44:41;95192.25;;;28.52;37.18
35989;BME280;22064;42.672;23.282;2022-07-17T11:47:09;95185.25;;;28.64;35.68
35989;BME280;22064;42.672;23.282;2022-07-17T11:49:39;95179.09;;;28.47;35.45
35989;BME280;22064;42.672;23.282;2022-07-17T11:52:12;95178.88;;;28.12;36.19
35989;BME280;22064;42.672;23.282;2022-07-17T11:57:15;95175.72;;;29.10;35.76
35989;BME280;22064;42.672;23.282;2022-07-17T11:59:41;95166.81;;;29.57;34.64
35989;BME280;22064;42.672;23.282;2022-07-17T12:02:14;95173.94;;;30.04;34.29
35989;BME280;22064;42.672;23.282;2022-07-17T12:04:53;95167.28;;;30.56;33.92
35989;BME280;22064;42.672;23.282;2022-07-17T12:07:20;95167.59;;;31.20;32.73
35989;BME280;22064;42.672;23.282;2022-07-17T12:09:46;95168.16;;;29.83;34.57
35989;BME280;22064;42.672;23.282;2022-07-17T12:12:22;95173.00;;;29.42;35.23
35989;BME280;22064;42.672;23.282;2022-07-17T12:14:58;95182.91;;;29.57;35.69
35989;BME280;22064;42.672;23.282;2022-07-17T12:17:35;95175.97;;;29.56;34.97
35989;BME280;22064;42.672;23.282;2022-07-17T12:20:03;95164.41;;;29.52;35.99
35989;BME280;22064;42.672;23.282;2022-07-17T12:22:29;95160.28;;;29.39;35.94
35989;BME280;22064;42.672;23.282;2022-07-17T12:24:56;95155.63;;;29.36;36.88
35989;BME280;22064;42.672;23.282;2022-07-17T12:27:21;95166.81;;;28.46;36.74
35989;BME280;22064;42.672;23.282;2022-07-17T12:29:49;95168.34;;;28.91;37.21
35989;BME280;22064;42.672;23.282;2022-07-17T12:32:16;95161.78;;;29.20;36.95
35989;BME280;22064;42.672;23.282;2022-07-17T12:34:44;95164.97;;;28.94;37.72
35989;BME280;22064;42.672;23.282;2022-07-17T12:37:11;95184.03;;;28.45;38.85
35989;BME280;22064;42.672;23.282;2022-07-17T12:39:37;95166.75;;;28.30;39.10
35989;BME280;22064;42.672;23.282;2022-07-17T12:42:03;95160.72;;;28.62;38.35
35989;BME280;22064;42.672;23.282;2022-07-17T12:44:29;95150.16;;;28.69;38.57
35989;BME280;22064;42.672;23.282;2022-07-17T12:46:55;95155.34;;;28.77;38.77
35989;BME280;22064;42.672;23.282;2022-07-17T12:49:20;95164.53;;;28.61;39.74
35989;BME280;22064;42.672;23.282;2022-07-17T12:51:46;95163.50;;;28.37;39.74
35989;BME280;22064;42.672;23.282;2022-07-17T12:54:12;95156.47;;;27.89;40.47
35989;BME280;22064;42.672;23.282;2022-07-17T12:56:38;95160.72;;;27.77;40.97
35989;BME280;22064;42.672;23.282;2022-07-17T12:59:03;95167.97;;;27.52;41.13